Sunset Colony, South Dakota
Current Conditions -  °F | °C
As of 7:35 PM on Monday 24 Nov 2014 (Local Time) from KGWR Reporting Station
Clear Clear  
Wind Chill: -15°   Ceiling: Unl
Heat Index: -8°   Visibility: 10mi
Dew Point: -15°   Wind: 10mph
Humidity: 58%   Direction: 310°NW
Pressure: 30"   Gusts: NA
Location:  45.8144°N, 97.7089°W
Report Text: KGWR 250135Z AUTO 31009KT 10SM CLR M08/M15 A3000 RMK A01 P000
Loading
Personal Weather Stations






























Interactive Weather Map New forecast layout! Learn more

10-Day Weather Forecast

Advertisements
Track Severe Weather on mobile